createdAt,value
2022-08-31T00:01:05.536Z,6.40
2022-08-31T00:03:53.073Z,2.40
2022-08-31T00:06:22.377Z,4.00
2022-08-31T00:08:51.396Z,6.60
2022-08-31T00:11:28.357Z,3.20
2022-08-31T00:14:05.363Z,3.70
2022-08-31T00:16:38.788Z,5.30
2022-08-31T00:19:07.653Z,7.20
2022-08-31T00:21:36.097Z,5.30
2022-08-31T00:24:04.678Z,3.50
2022-08-31T00:26:33.168Z,4.60
2022-08-31T00:29:01.683Z,5.60
2022-08-31T00:31:30.763Z,6.20
2022-08-31T00:33:59.377Z,4.80
2022-08-31T00:36:28.382Z,3.20
2022-08-31T00:38:57.977Z,5.80
2022-08-31T00:41:31.494Z,4.20
2022-08-31T00:44:03.453Z,5.10
2022-08-31T00:46:38.337Z,5.30
2022-08-31T00:49:15.779Z,5.60
2022-08-31T00:51:47.244Z,4.30
2022-08-31T00:54:19.726Z,3.30
2022-08-31T00:56:49.371Z,6.10
2022-08-31T00:59:20.727Z,5.10
2022-08-31T01:01:50.559Z,5.00
2022-08-31T01:04:19.034Z,5.90
2022-08-31T01:06:49.793Z,5.70
2022-08-31T01:09:22.562Z,4.70
2022-08-31T01:11:51.323Z,5.80
2022-08-31T01:14:23.281Z,6.20
2022-08-31T01:16:54.748Z,4.80
2022-08-31T01:19:29.793Z,6.10
2022-08-31T01:22:01.246Z,6.50
2022-08-31T01:24:33.200Z,7.40
2022-08-31T01:27:05.095Z,6.20
2022-08-31T01:29:35.858Z,5.20
2022-08-31T01:32:05.990Z,5.90
2022-08-31T01:34:34.991Z,7.10
2022-08-31T01:37:03.478Z,5.10
2022-08-31T01:39:32.075Z,7.10
2022-08-31T01:42:01.037Z,7.40
2022-08-31T01:44:30.392Z,7.30
2022-08-31T01:46:59.009Z,7.70
2022-08-31T01:49:29.527Z,4.90
2022-08-31T01:51:59.336Z,7.20
2022-08-31T01:54:28.294Z,6.30
2022-08-31T01:56:57.035Z,7.00
2022-08-31T01:59:33.903Z,8.50
2022-08-31T02:02:21.509Z,5.90
2022-08-31T02:04:50.029Z,6.20
2022-08-31T02:07:21.641Z,6.40
2022-08-31T02:09:50.196Z,4.10
2022-08-31T02:12:19.575Z,6.40
2022-08-31T02:14:48.852Z,5.50
2022-08-31T02:17:17.711Z,7.50
2022-08-31T02:19:46.188Z,12.80
2022-08-31T02:22:16.060Z,8.30
2022-08-31T02:24:44.621Z,5.80
2022-08-31T02:27:13.650Z,7.10
2022-08-31T02:29:42.653Z,6.30
2022-08-31T02:32:20.133Z,6.30
2022-08-31T02:34:50.221Z,5.40
2022-08-31T02:37:20.560Z,6.00
2022-08-31T02:39:50.331Z,6.60
2022-08-31T02:42:19.922Z,6.20
2022-08-31T02:44:48.301Z,8.30
2022-08-31T02:47:16.903Z,4.00
2022-08-31T02:50:10.231Z,5.00
2022-08-31T02:52:38.870Z,8.10
2022-08-31T02:55:08.984Z,9.80
2022-08-31T02:57:37.956Z,4.80
2022-08-31T03:00:08.968Z,6.60
2022-08-31T03:02:38.022Z,5.50
2022-08-31T03:05:10.479Z,5.40
2022-08-31T03:07:39.711Z,4.70
2022-08-31T03:10:14.462Z,3.20
2022-08-31T03:12:43.411Z,6.20
2022-08-31T03:15:12.319Z,6.70
2022-08-31T03:17:47.370Z,6.80
2022-08-31T03:20:18.985Z,6.20
2022-08-31T03:22:48.692Z,4.50
2022-08-31T03:25:19.148Z,6.00
2022-08-31T03:27:47.870Z,6.50
2022-08-31T03:30:19.672Z,5.60
2022-08-31T03:33:02.339Z,3.70
2022-08-31T03:35:32.841Z,6.00
2022-08-31T03:38:03.000Z,5.70
2022-08-31T03:40:32.064Z,4.80
2022-08-31T03:43:00.737Z,6.40
2022-08-31T03:45:32.317Z,5.30
2022-08-31T03:48:01.060Z,4.70
2022-08-31T03:50:30.895Z,7.20
2022-08-31T03:53:09.276Z,5.50
2022-08-31T03:55:41.530Z,4.50
2022-08-31T03:58:11.624Z,4.50
2022-08-31T04:00:42.801Z,4.10
2022-08-31T04:03:16.382Z,11.30
2022-08-31T04:06:08.513Z,9.80
2022-08-31T04:08:56.146Z,5.60
2022-08-31T04:11:46.882Z,5.20
2022-08-31T04:14:44.493Z,6.80
2022-08-31T04:17:34.141Z,8.60
2022-08-31T04:20:18.519Z,6.90
2022-08-31T04:22:53.018Z,5.70
2022-08-31T04:25:41.363Z,2.80
2022-08-31T04:28:10.867Z,7.30
2022-08-31T04:30:42.770Z,5.10
2022-08-31T04:33:12.758Z,16.30
2022-08-31T04:35:42.532Z,5.60
2022-08-31T04:38:12.198Z,8.80
2022-08-31T04:40:43.797Z,7.10
2022-08-31T04:43:12.650Z,4.50
2022-08-31T04:45:44.638Z,6.80
2022-08-31T04:48:15.509Z,7.60
2022-08-31T04:50:44.472Z,8.10
2022-08-31T04:53:13.760Z,5.50
2022-08-31T04:55:43.783Z,5.60
2022-08-31T04:58:13.980Z,11.50
2022-08-31T05:00:44.262Z,4.80
2022-08-31T05:03:13.277Z,7.80
2022-08-31T05:05:42.435Z,7.70
2022-08-31T05:08:10.882Z,6.60
2022-08-31T05:10:41.535Z,6.90
2022-08-31T05:13:10.124Z,7.90
2022-08-31T05:15:43.890Z,5.00
2022-08-31T05:18:14.796Z,4.50
2022-08-31T05:20:49.503Z,7.80
2022-08-31T05:23:19.382Z,9.80
2022-08-31T05:25:48.636Z,4.10
2022-08-31T05:28:22.133Z,5.00
2022-08-31T05:30:51.055Z,6.50
2022-08-31T05:33:36.993Z,6.00
2022-08-31T05:36:05.916Z,5.00
2022-08-31T05:38:35.633Z,7.20
2022-08-31T05:41:06.376Z,5.80
2022-08-31T05:43:35.117Z,6.10
2022-08-31T05:46:13.762Z,7.70
2022-08-31T05:48:43.164Z,8.00
2022-08-31T05:51:19.581Z,7.30
2022-08-31T05:53:48.852Z,7.00
2022-08-31T05:56:21.337Z,6.90
2022-08-31T05:58:51.832Z,7.40
2022-08-31T06:01:24.608Z,4.10
2022-08-31T06:04:16.507Z,5.10
2022-08-31T06:06:46.058Z,5.50
2022-08-31T06:09:16.262Z,4.50
2022-08-31T06:11:47.426Z,4.70
2022-08-31T06:14:18.779Z,5.80
2022-08-31T06:16:48.614Z,5.40
2022-08-31T06:19:20.463Z,8.70
2022-08-31T06:21:51.577Z,7.80
2022-08-31T06:24:29.272Z,6.60
2022-08-31T06:26:59.655Z,4.80
2022-08-31T06:29:33.181Z,5.60
2022-08-31T06:32:08.359Z,6.00
2022-08-31T06:34:42.577Z,6.90
2022-08-31T06:37:30.003Z,4.80
2022-08-31T06:40:11.055Z,5.40
2022-08-31T06:42:39.673Z,6.20
2022-08-31T06:45:41.962Z,5.30
2022-08-31T06:48:29.231Z,4.80
2022-08-31T06:50:59.702Z,3.60
2022-08-31T06:53:29.817Z,6.20
2022-08-31T06:56:21.613Z,4.40
2022-08-31T06:59:28.499Z,5.90
2022-08-31T07:02:16.485Z,5.60
2022-08-31T07:04:45.216Z,5.40
2022-08-31T07:07:13.859Z,4.70
2022-08-31T07:09:44.478Z,3.50
2022-08-31T07:12:13.403Z,7.20
2022-08-31T07:14:42.096Z,4.50
2022-08-31T07:17:19.351Z,7.30
2022-08-31T07:19:47.781Z,5.70
2022-08-31T07:22:17.789Z,6.50
2022-08-31T07:24:48.842Z,3.10
2022-08-31T07:27:18.808Z,3.20
2022-08-31T07:29:54.714Z,6.30
2022-08-31T07:32:24.448Z,3.10
2022-08-31T07:34:58.501Z,2.70
2022-08-31T07:37:52.054Z,4.50
2022-08-31T07:40:44.463Z,1.80
2022-08-31T07:43:15.139Z,3.80
2022-08-31T07:45:44.245Z,2.80
2022-08-31T07:48:16.853Z,2.80
2022-08-31T07:51:05.765Z,3.00
2022-08-31T07:53:47.926Z,3.90
2022-08-31T07:56:46.883Z,5.70
2022-08-31T07:59:22.565Z,2.10
2022-08-31T08:01:55.809Z,2.40
2022-08-31T08:04:27.757Z,1.50
2022-08-31T08:07:34.090Z,3.70
2022-08-31T08:10:46.812Z,2.50
2022-08-31T08:13:39.200Z,2.00
2022-08-31T08:16:34.505Z,3.80
2022-08-31T08:19:29.046Z,1.80
2022-08-31T08:21:57.668Z,5.00
2022-08-31T08:24:31.711Z,6.60
2022-08-31T08:27:19.278Z,3.30
2022-08-31T08:29:56.497Z,2.70
2022-08-31T08:32:31.908Z,3.90
2022-08-31T08:35:00.594Z,1.80
2022-08-31T08:37:47.809Z,5.10
2022-08-31T08:40:42.933Z,4.30
2022-08-31T08:43:19.082Z,2.60
2022-08-31T08:45:53.939Z,2.70
2022-08-31T08:48:30.090Z,3.20
2022-08-31T08:51:02.402Z,4.70
2022-08-31T08:53:46.965Z,3.10
2022-08-31T09:01:46.514Z,2.90
2022-08-31T09:04:31.161Z,3.10
2022-08-31T09:07:23.223Z,1.70
2022-08-31T09:10:22.012Z,2.70
2022-08-31T09:13:10.149Z,1.10
2022-08-31T09:16:04.814Z,2.80
2022-08-31T09:18:50.058Z,2.10
2022-08-31T09:21:24.003Z,2.20
2022-08-31T09:24:04.329Z,5.50
2022-08-31T09:26:58.817Z,1.40
2022-08-31T09:29:34.769Z,4.10
2022-08-31T09:32:10.309Z,2.80
2022-08-31T09:34:42.701Z,1.90
2022-08-31T09:37:16.542Z,2.20
2022-08-31T09:39:48.862Z,2.30
2022-08-31T09:42:31.602Z,2.10
2022-08-31T09:45:16.242Z,2.20
2022-08-31T09:47:58.751Z,2.30
2022-08-31T09:50:45.377Z,4.00
2022-08-31T09:53:38.426Z,1.90
2022-08-31T09:56:14.426Z,1.80
2022-08-31T09:58:45.010Z,2.40
2022-08-31T10:01:28.890Z,6.30
2022-08-31T10:04:20.517Z,2.00
2022-08-31T10:07:00.766Z,2.40
2022-08-31T10:09:57.879Z,1.00
2022-08-31T10:12:46.494Z,3.80
2022-08-31T10:15:23.798Z,5.40
2022-08-31T10:18:29.132Z,2.70
2022-08-31T10:21:08.421Z,2.30
2022-08-31T10:23:54.789Z,2.00
2022-08-31T10:26:34.557Z,0.80
2022-08-31T10:29:19.133Z,3.30
2022-08-31T10:31:56.093Z,2.10
2022-08-31T10:34:49.786Z,1.30
2022-08-31T10:37:44.200Z,2.50
2022-08-31T10:40:35.398Z,1.40
2022-08-31T10:43:18.102Z,1.40
2022-08-31T10:45:49.789Z,2.10
2022-08-31T10:48:22.320Z,3.00
2022-08-31T10:51:23.598Z,2.40
2022-08-31T10:53:55.349Z,2.20
2022-08-31T10:56:41.590Z,1.20
2022-08-31T10:59:23.353Z,1.90
2022-08-31T11:02:04.784Z,2.30
2022-08-31T11:04:45.435Z,2.20
2022-08-31T11:07:26.663Z,2.00
2022-08-31T11:10:20.248Z,1.00
2022-08-31T11:12:57.737Z,1.80
2022-08-31T11:15:58.630Z,1.30
2022-08-31T11:18:40.363Z,2.30
2022-08-31T11:21:29.219Z,2.60
2022-08-31T11:24:19.004Z,2.30
2022-08-31T11:26:57.335Z,1.30
2022-08-31T11:29:42.095Z,1.00
2022-08-31T11:32:22.063Z,2.10
2022-08-31T11:34:55.230Z,1.90
2022-08-31T11:37:47.156Z,3.30
2022-08-31T11:40:42.243Z,1.30
2022-08-31T11:43:32.865Z,2.90
2022-08-31T11:46:27.239Z,1.40
2022-08-31T11:48:56.245Z,2.20
2022-08-31T11:51:38.647Z,3.50
2022-08-31T11:54:33.565Z,4.70
2022-08-31T11:57:03.349Z,2.40
2022-08-31T11:59:35.662Z,2.30
2022-08-31T12:02:19.852Z,4.30
2022-08-31T12:04:57.775Z,3.60
2022-08-31T12:07:36.249Z,1.30
2022-08-31T12:10:07.537Z,2.90
2022-08-31T12:12:48.678Z,2.40
2022-08-31T12:15:25.915Z,2.70
2022-08-31T12:18:12.848Z,1.90
2022-08-31T12:21:20.620Z,2.80
2022-08-31T12:23:52.117Z,2.30
2022-08-31T12:26:56.090Z,3.40
2022-08-31T12:29:33.061Z,2.50
2022-08-31T12:32:02.200Z,4.90
2022-08-31T12:34:31.992Z,4.20
2022-08-31T12:37:00.672Z,1.80
2022-08-31T12:39:29.687Z,3.90
2022-08-31T12:42:03.270Z,2.60
2022-08-31T12:44:50.321Z,2.00
2022-08-31T12:47:50.914Z,2.50
2022-08-31T12:50:22.182Z,1.60
2022-08-31T12:53:24.789Z,4.10
2022-08-31T12:56:14.499Z,2.80
2022-08-31T12:59:01.945Z,1.10
2022-08-31T13:01:31.142Z,1.90
2022-08-31T13:04:02.928Z,2.70
2022-08-31T13:06:34.364Z,1.50
2022-08-31T13:09:05.682Z,2.40
2022-08-31T13:11:40.773Z,3.70
2022-08-31T13:14:21.141Z,1.90
2022-08-31T13:17:15.551Z,4.60
2022-08-31T13:19:56.571Z,3.00
2022-08-31T13:22:30.317Z,1.80
2022-08-31T13:25:19.832Z,2.60
2022-08-31T13:27:52.047Z,4.10
2022-08-31T13:30:25.421Z,4.70
2022-08-31T13:32:55.074Z,1.40
2022-08-31T13:35:34.289Z,3.40
2022-08-31T13:38:05.747Z,1.30
2022-08-31T13:40:39.676Z,3.00
2022-08-31T13:43:11.020Z,2.60
2022-08-31T13:45:53.413Z,2.60
2022-08-31T13:48:33.835Z,1.70
2022-08-31T13:51:13.397Z,4.30
2022-08-31T13:53:46.755Z,5.60
2022-08-31T13:56:40.964Z,2.30
2022-08-31T13:59:20.498Z,2.30
2022-08-31T14:01:52.145Z,3.20
2022-08-31T14:04:57.510Z,1.60
2022-08-31T14:07:28.950Z,2.00
2022-08-31T14:10:15.361Z,3.50
2022-08-31T14:13:04.179Z,2.00
2022-08-31T14:15:50.819Z,3.80
2022-08-31T14:18:43.487Z,2.40
2022-08-31T14:21:25.389Z,1.40
2022-08-31T14:24:02.813Z,3.80
2022-08-31T14:26:41.914Z,2.00
2022-08-31T14:29:14.085Z,3.00
2022-08-31T14:31:52.520Z,5.80
2022-08-31T14:34:32.431Z,4.00
2022-08-31T14:37:07.817Z,3.40
2022-08-31T14:39:45.893Z,2.50
2022-08-31T14:42:26.731Z,2.70
2022-08-31T14:45:02.760Z,2.00
2022-08-31T14:47:36.499Z,2.30
2022-08-31T14:50:06.049Z,3.70
2022-08-31T14:52:42.080Z,2.30
2022-08-31T14:57:43.720Z,2.10
2022-08-31T15:00:23.695Z,3.60
2022-08-31T15:02:53.770Z,1.70
2022-08-31T15:05:25.570Z,4.50
2022-08-31T15:07:55.270Z,4.10
2022-08-31T15:10:26.255Z,2.90
2022-08-31T15:12:56.157Z,4.80
2022-08-31T15:15:24.917Z,2.60
2022-08-31T15:17:54.125Z,3.20
2022-08-31T15:20:23.051Z,2.50
2022-08-31T15:22:52.338Z,1.50
2022-08-31T15:25:22.725Z,6.00
2022-08-31T15:27:52.009Z,2.00
2022-08-31T15:30:20.512Z,5.10
2022-08-31T15:32:49.424Z,2.80
2022-08-31T15:35:23.547Z,6.60
2022-08-31T15:37:59.504Z,4.50
2022-08-31T15:43:01.985Z,5.40
2022-08-31T15:45:31.661Z,2.90
2022-08-31T15:48:19.235Z,2.70
2022-08-31T15:51:00.762Z,1.60
2022-08-31T15:53:30.971Z,5.00
2022-08-31T15:56:06.542Z,3.30
2022-08-31T15:58:39.314Z,2.20
2022-08-31T16:01:19.127Z,5.20
2022-08-31T16:03:55.805Z,3.20
2022-08-31T16:06:32.911Z,4.70
2022-08-31T16:09:02.915Z,3.30
2022-08-31T16:11:37.173Z,2.50
2022-08-31T16:14:11.186Z,1.90
2022-08-31T16:16:43.218Z,4.20
2022-08-31T16:19:27.769Z,2.70
2022-08-31T16:22:02.232Z,2.20
2022-08-31T16:24:36.055Z,1.80
2022-08-31T16:27:08.315Z,2.50
2022-08-31T16:29:36.794Z,6.00
2022-08-31T16:32:06.990Z,5.50
2022-08-31T16:34:37.399Z,3.20
2022-08-31T16:37:08.385Z,4.00
2022-08-31T16:39:40.331Z,2.50
2022-08-31T16:42:11.390Z,7.80
2022-08-31T16:44:43.957Z,2.60
2022-08-31T16:47:16.402Z,3.20
2022-08-31T16:49:46.002Z,2.90
2022-08-31T16:52:21.761Z,1.60
2022-08-31T16:57:25.707Z,5.30
2022-08-31T16:59:57.387Z,3.40
2022-08-31T17:02:27.928Z,4.40
2022-08-31T17:05:00.874Z,4.90
2022-08-31T17:07:29.334Z,4.80
2022-08-31T17:10:07.362Z,2.20
2022-08-31T17:12:37.175Z,3.80
2022-08-31T17:15:06.718Z,5.20
2022-08-31T17:17:35.459Z,4.00
2022-08-31T17:20:05.438Z,5.50
2022-08-31T17:22:33.934Z,3.20
2022-08-31T17:25:05.098Z,4.00
2022-08-31T17:27:34.931Z,10.20
2022-08-31T17:30:07.878Z,8.20
2022-08-31T17:32:43.225Z,8.60
2022-08-31T17:35:19.141Z,4.10
2022-08-31T17:37:49.702Z,8.70
2022-08-31T17:40:19.290Z,7.40
2022-08-31T17:42:50.349Z,3.70
2022-08-31T17:45:21.797Z,3.80
2022-08-31T17:47:51.404Z,3.50
2022-08-31T17:50:21.937Z,4.30
2022-08-31T17:52:50.722Z,4.00
2022-08-31T17:55:19.413Z,3.10
2022-08-31T17:57:48.105Z,5.90
2022-08-31T18:00:17.269Z,3.60
2022-08-31T18:02:46.187Z,5.40
2022-08-31T18:05:16.922Z,4.40
2022-08-31T18:07:48.677Z,5.70
2022-08-31T18:10:19.334Z,4.80
2022-08-31T18:12:48.005Z,6.60
2022-08-31T18:15:19.662Z,5.90
2022-08-31T18:17:48.775Z,5.10
2022-08-31T18:20:17.752Z,2.80
2022-08-31T18:22:51.581Z,4.10
2022-08-31T18:25:21.816Z,2.40
2022-08-31T18:27:51.033Z,4.00
2022-08-31T18:30:20.175Z,4.10
2022-08-31T18:32:49.746Z,5.60
2022-08-31T18:35:18.361Z,3.10
2022-08-31T18:37:48.379Z,7.00
2022-08-31T18:40:35.989Z,5.00
2022-08-31T18:43:23.674Z,3.40
2022-08-31T18:45:53.071Z,2.40
2022-08-31T18:48:26.450Z,2.70
2022-08-31T18:50:57.496Z,3.20
2022-08-31T18:53:30.582Z,3.40
2022-08-31T18:56:08.912Z,3.90
2022-08-31T18:58:38.924Z,3.80
2022-08-31T19:01:10.904Z,5.80
2022-08-31T19:03:41.391Z,3.90
2022-08-31T19:06:23.706Z,4.40
2022-08-31T19:08:53.414Z,2.60
2022-08-31T19:11:23.602Z,5.00
2022-08-31T19:13:54.251Z,4.30
2022-08-31T19:16:28.975Z,3.10
2022-08-31T19:18:59.556Z,2.60
2022-08-31T19:21:31.403Z,6.50
2022-08-31T19:24:05.105Z,4.40
2022-08-31T19:26:41.059Z,6.10
2022-08-31T19:29:14.725Z,5.40
2022-08-31T19:31:47.539Z,2.70
2022-08-31T19:34:20.540Z,2.90
2022-08-31T19:36:54.468Z,7.60
2022-08-31T19:39:28.248Z,9.20
2022-08-31T19:42:01.139Z,3.60
2022-08-31T19:47:25.680Z,3.40
2022-08-31T19:49:54.661Z,3.70
2022-08-31T19:52:25.515Z,7.00
2022-08-31T19:54:54.574Z,7.90
2022-08-31T19:57:24.092Z,3.10
2022-08-31T19:59:52.787Z,6.60
2022-08-31T20:02:22.205Z,4.40
2022-08-31T20:04:51.181Z,3.30
2022-08-31T20:07:20.775Z,4.50
2022-08-31T20:09:49.780Z,6.20
2022-08-31T20:12:19.707Z,2.30
2022-08-31T20:14:49.094Z,4.40
2022-08-31T20:17:20.979Z,6.90
2022-08-31T20:19:51.313Z,7.60
2022-08-31T20:22:20.984Z,7.00
2022-08-31T20:24:50.407Z,4.80
2022-08-31T20:27:19.942Z,4.90
2022-08-31T20:29:48.873Z,5.00
2022-08-31T20:32:17.767Z,3.20
2022-08-31T20:34:46.556Z,3.50
2022-08-31T20:37:15.438Z,6.70
2022-08-31T20:39:44.251Z,5.70
2022-08-31T20:42:13.455Z,5.80
2022-08-31T20:44:46.610Z,4.90
2022-08-31T20:50:07.677Z,4.70
2022-08-31T20:52:36.431Z,4.30
2022-08-31T20:55:07.235Z,3.90
2022-08-31T20:57:41.122Z,9.10
2022-08-31T21:00:10.887Z,5.00
2022-08-31T21:02:42.478Z,6.00
2022-08-31T21:08:04.573Z,5.70
2022-08-31T21:10:38.180Z,4.00
2022-08-31T21:13:10.385Z,4.00
2022-08-31T21:15:46.823Z,5.60
2022-08-31T21:18:19.560Z,5.80
2022-08-31T21:20:49.221Z,6.60
2022-08-31T21:23:19.141Z,6.50
2022-08-31T21:25:48.362Z,10.30
2022-08-31T21:28:18.781Z,6.90
2022-08-31T21:30:50.625Z,9.60
2022-08-31T21:33:19.756Z,8.00
2022-08-31T21:35:49.149Z,6.70
2022-08-31T21:38:18.855Z,5.70
2022-08-31T21:40:51.450Z,6.30
2022-08-31T21:43:20.583Z,7.30
2022-08-31T21:46:02.145Z,4.20
2022-08-31T21:48:33.180Z,4.60
2022-08-31T21:51:20.170Z,8.40
2022-08-31T21:53:52.832Z,8.50
2022-08-31T21:56:23.591Z,4.20
2022-08-31T21:58:53.213Z,4.00
2022-08-31T22:01:24.577Z,5.80
2022-08-31T22:03:58.550Z,6.20
2022-08-31T22:06:31.646Z,8.30
2022-08-31T22:09:06.007Z,6.00
2022-08-31T22:11:38.639Z,9.40
2022-08-31T22:14:10.808Z,9.90
2022-08-31T22:16:40.107Z,7.10
2022-08-31T22:19:13.322Z,6.70
2022-08-31T22:21:45.887Z,8.00
2022-08-31T22:24:27.357Z,5.50
2022-08-31T22:27:00.980Z,6.90
2022-08-31T22:29:34.074Z,9.90
2022-08-31T22:32:09.399Z,4.70
2022-08-31T22:34:39.157Z,11.80
2022-08-31T22:37:09.597Z,7.40
2022-08-31T22:39:39.970Z,7.10
2022-08-31T22:42:09.424Z,9.00
2022-08-31T22:44:41.135Z,11.00
2022-08-31T22:47:10.634Z,10.30
2022-08-31T22:49:39.937Z,7.60
2022-08-31T22:52:08.730Z,10.20
2022-08-31T22:54:37.514Z,11.10
2022-08-31T22:57:06.337Z,11.70
2022-08-31T22:59:35.516Z,8.50
2022-08-31T23:02:04.949Z,9.20
2022-08-31T23:04:35.151Z,11.20
2022-08-31T23:07:04.643Z,9.20
2022-08-31T23:09:34.757Z,9.70
2022-08-31T23:12:05.583Z,5.30
2022-08-31T23:14:34.643Z,6.10
2022-08-31T23:17:09.848Z,9.70
2022-08-31T23:19:42.583Z,8.80
2022-08-31T23:22:15.507Z,7.40
2022-08-31T23:24:47.871Z,7.90
2022-08-31T23:27:19.708Z,12.00
2022-08-31T23:29:51.881Z,7.40
2022-08-31T23:32:26.318Z,8.80
2022-08-31T23:34:58.644Z,11.80
2022-08-31T23:37:28.357Z,9.00
2022-08-31T23:40:00.068Z,9.20
2022-08-31T23:42:30.216Z,8.40
2022-08-31T23:44:59.367Z,7.10
2022-08-31T23:47:31.753Z,10.40
2022-08-31T23:50:05.371Z,11.50
2022-08-31T23:52:38.192Z,11.50
2022-08-31T23:55:07.418Z,9.90
2022-08-31T23:57:37.694Z,7.10
